Time;durP1;ratioP1;P1;durP2;ratioP2;P2;SDS_P1;SDS_P2;PMS_P1;PMS_P2;Temp;Humidity;BMP_temperature;BMP_pressure;BME280_temperature;BME280_humidity;BME280_pressure;Samples;Min_cycle;Max_cycle;Signal;HPM_P1;HPM_P2
2024/02/19 00:01:05;;;;;;;4.55;1.45;;;16.10;64.30;;;;;;5113947;28;20204;-60
2024/02/19 00:03:33;;;;;;;3.90;1.42;;;16.10;64.20;;;;;;5114466;28;20173;-60
2024/02/19 00:05:59;;;;;;;2.33;1.20;;;16.10;64.30;;;;;;5114815;28;20169;-60
2024/02/19 00:08:24;;;;;;;1.67;1.10;;;16.10;64.40;;;;;;5113684;28;20214;-60
2024/02/19 00:10:51;;;;;;;2.35;1.20;;;16.10;64.30;;;;;;5114475;28;20940;-60
2024/02/19 00:13:18;;;;;;;3.63;1.40;;;16.10;64.30;;;;;;5114205;28;20184;-60
2024/02/19 00:15:43;;;;;;;3.50;1.33;;;16.10;65.20;;;;;;5113953;28;20169;-59
2024/02/19 00:18:10;;;;;;;2.65;1.23;;;16.10;64.30;;;;;;5114489;28;20170;-60
2024/02/19 00:20:35;;;;;;;3.10;1.38;;;16.10;64.40;;;;;;5114177;28;20212;-60
2024/02/19 00:23:01;;;;;;;3.35;1.35;;;16.10;64.40;;;;;;5113778;28;20188;-59
2024/02/19 00:25:26;;;;;;;3.28;1.38;;;16.10;64.30;;;;;;5114109;28;20636;-60
2024/02/19 00:27:52;;;;;;;2.35;1.20;;;16.10;64.30;;;;;;5114319;28;20608;-59
2024/02/19 00:30:17;;;;;;;3.42;1.55;;;16.00;64.30;;;;;;5113334;28;20267;-60
2024/02/19 00:32:46;;;;;;;4.70;1.80;;;16.10;64.30;;;;;;5114315;28;20256;-60
2024/02/19 00:35:12;;;;;;;2.17;1.20;;;16.00;64.30;;;;;;5114397;28;20176;-60
2024/02/19 00:37:37;;;;;;;3.90;1.50;;;16.00;64.30;;;;;;5113045;28;20173;-60
2024/02/19 00:40:04;;;;;;;3.67;1.63;;;16.00;64.30;;;;;;5114144;28;20192;-60
2024/02/19 00:42:30;;;;;;;3.45;1.52;;;16.00;64.30;;;;;;5113368;28;20176;-60
2024/02/19 00:44:55;;;;;;;3.65;1.30;;;16.00;64.30;;;;;;5113466;27;20165;-60
2024/02/19 00:47:21;;;;;;;4.75;1.20;;;16.00;64.30;;;;;;5113682;28;20204;-60
2024/02/19 00:49:46;;;;;;;3.28;1.10;;;16.00;64.30;;;;;;5113717;28;20520;-60
2024/02/19 00:52:12;;;;;;;2.97;1.35;;;16.00;64.30;;;;;;5113096;28;20587;-60
2024/02/19 00:54:43;;;;;;;4.63;1.75;;;16.00;64.30;;;;;;5113467;27;20592;-60
2024/02/19 00:57:09;;;;;;;3.95;1.58;;;16.00;64.30;;;;;;5113308;28;20655;-60
2024/02/19 00:59:34;;;;;;;3.70;1.15;;;16.00;64.30;;;;;;5112471;28;20184;-60
2024/02/19 01:02:00;;;;;;;3.75;1.40;;;16.00;64.30;;;;;;5113644;28;20174;-60
2024/02/19 01:04:25;;;;;;;4.35;2.08;;;16.00;65.20;;;;;;5112465;28;20169;-59
2024/02/19 01:06:51;;;;;;;3.50;1.60;;;16.00;65.20;;;;;;5113634;28;20212;-60
2024/02/19 01:09:16;;;;;;;4.45;1.50;;;16.00;64.40;;;;;;5113229;28;20208;-60
2024/02/19 01:11:42;;;;;;;5.72;1.50;;;16.00;64.30;;;;;;5112531;28;20256;-60
2024/02/19 01:14:08;;;;;;;5.82;1.70;;;16.00;64.30;;;;;;5113559;28;20263;-60
2024/02/19 01:16:33;;;;;;;2.92;1.35;;;15.90;64.30;;;;;;5112806;28;20177;-59
2024/02/19 01:18:59;;;;;;;6.38;1.80;;;16.00;64.30;;;;;;5112626;28;20173;-60
2024/02/19 01:21:24;;;;;;;5.10;1.50;;;15.90;64.30;;;;;;5112750;28;20204;-59
2024/02/19 01:23:50;;;;;;;3.90;1.48;;;15.90;64.30;;;;;;5113406;28;20169;-60
2024/02/19 01:26:20;;;;;;;4.15;1.30;;;15.90;64.30;;;;;;5112300;28;20173;-60
2024/02/19 01:28:46;;;;;;;4.40;1.63;;;15.90;64.20;;;;;;5113249;28;20238;-60
2024/02/19 01:31:12;;;;;;;4.88;1.50;;;16.00;64.30;;;;;;5111956;28;20260;-60
2024/02/19 01:33:38;;;;;;;2.70;1.10;;;15.90;64.30;;;;;;5112112;28;20239;-60
2024/02/19 01:36:04;;;;;;;3.97;1.30;;;15.90;64.30;;;;;;5112892;28;20527;-60
2024/02/19 01:38:30;;;;;;;2.95;1.10;;;15.90;64.30;;;;;;5112584;28;20643;-60
2024/02/19 01:40:56;;;;;;;6.00;1.80;;;15.90;64.30;;;;;;5111915;28;20220;-60
2024/02/19 01:43:22;;;;;;;3.15;1.27;;;15.90;64.20;;;;;;5112496;27;20173;-60
2024/02/19 01:45:47;;;;;;;4.30;1.73;;;15.90;64.30;;;;;;5113015;28;20284;-60
2024/02/19 01:48:13;;;;;;;2.85;1.30;;;15.90;64.30;;;;;;5112142;28;20249;-60
2024/02/19 01:50:39;;;;;;;3.88;1.55;;;15.90;64.30;;;;;;5112431;28;20208;-60
2024/02/19 01:53:07;;;;;;;4.40;1.63;;;15.90;64.30;;;;;;5110974;28;20172;-60
2024/02/19 01:55:32;;;;;;;3.80;1.20;;;15.90;64.30;;;;;;5110282;28;20181;-60
2024/02/19 01:57:58;;;;;;;3.10;1.17;;;15.90;64.30;;;;;;5112867;28;20518;-60
2024/02/19 02:00:24;;;;;;;3.30;1.67;;;15.90;64.40;;;;;;5112119;28;20254;-60
2024/02/19 02:02:49;;;;;;;4.57;1.48;;;15.90;65.20;;;;;;5111821;28;20177;-60
2024/02/19 02:05:15;;;;;;;4.15;1.83;;;15.90;64.30;;;;;;5111293;28;20168;-60
2024/02/19 02:07:43;;;;;;;3.65;1.50;;;15.80;64.30;;;;;;5110362;28;20169;-60
2024/02/19 02:10:09;;;;;;;4.20;1.40;;;15.90;64.40;;;;;;5111264;28;20177;-60
2024/02/19 02:12:34;;;;;;;3.40;1.15;;;15.90;64.30;;;;;;5112318;28;20230;-60
2024/02/19 02:15:00;;;;;;;4.88;1.30;;;15.90;64.40;;;;;;5111928;28;20635;-60
2024/02/19 02:17:25;;;;;;;4.20;1.77;;;15.80;64.30;;;;;;5112104;28;20517;-60
2024/02/19 02:19:51;;;;;;;3.65;1.67;;;15.80;64.30;;;;;;5112290;28;20196;-60
2024/02/19 02:22:17;;;;;;;3.83;1.58;;;15.80;64.30;;;;;;5111487;28;20177;-60
2024/02/19 02:24:43;;;;;;;3.38;1.50;;;15.80;64.30;;;;;;5112084;28;20570;-59
2024/02/19 02:27:09;;;;;;;3.80;1.50;;;15.80;64.30;;;;;;5112554;28;20181;-59
2024/02/19 02:29:36;;;;;;;3.05;1.33;;;15.80;64.30;;;;;;5111488;28;20632;-60
2024/02/19 02:32:01;;;;;;;3.38;1.27;;;15.80;64.30;;;;;;5112330;28;20181;-60
2024/02/19 02:34:27;;;;;;;2.28;1.20;;;15.80;64.30;;;;;;5112015;28;20173;-59
2024/02/19 02:36:52;;;;;;;3.55;1.50;;;15.80;64.30;;;;;;5111547;28;20568;-60
2024/02/19 02:39:18;;;;;;;3.63;1.45;;;15.80;64.30;;;;;;5111862;28;20623;-60
2024/02/19 02:41:43;;;;;;;2.17;1.35;;;15.80;64.30;;;;;;5112249;28;20208;-60
2024/02/19 02:44:09;;;;;;;3.10;1.38;;;15.80;64.40;;;;;;5111651;28;20165;-60
2024/02/19 02:46:35;;;;;;;3.72;1.55;;;15.80;64.30;;;;;;5111950;28;20177;-60
2024/02/19 02:49:00;;;;;;;3.65;1.60;;;15.80;64.30;;;;;;5112261;28;20631;-60
2024/02/19 02:51:26;;;;;;;5.13;1.70;;;15.80;64.40;;;;;;5111046;28;20172;-60
2024/02/19 02:53:51;;;;;;;3.42;1.60;;;15.80;64.70;;;;;;5112003;28;20173;-60
2024/02/19 02:56:18;;;;;;;3.70;1.52;;;15.80;64.40;;;;;;5111818;28;20225;-60
2024/02/19 02:58:44;;;;;;;4.95;1.50;;;15.80;64.30;;;;;;5111224;28;20584;-60
2024/02/19 03:01:09;;;;;;;4.78;1.65;;;15.80;64.30;;;;;;5112037;28;20223;-60
2024/02/19 03:03:35;;;;;;;3.53;1.50;;;15.80;64.30;;;;;;5111698;28;20174;-59
2024/02/19 03:06:02;;;;;;;3.15;1.60;;;15.80;64.40;;;;;;5113917;28;20179;-60
2024/02/19 03:08:28;;;;;;;4.18;1.50;;;15.70;64.30;;;;;;5115406;28;20200;-60
2024/02/19 03:10:54;;;;;;;4.22;1.13;;;15.70;64.30;;;;;;5115561;28;20197;-60
2024/02/19 03:13:19;;;;;;;4.60;1.77;;;15.80;64.40;;;;;;5115364;28;20165;-60
2024/02/19 03:15:45;;;;;;;3.50;1.40;;;15.70;64.30;;;;;;5115764;28;20552;-59
2024/02/19 03:18:11;;;;;;;3.55;1.48;;;15.80;64.40;;;;;;5114962;28;20252;-59
2024/02/19 03:20:37;;;;;;;3.70;1.42;;;15.70;64.30;;;;;;5115080;28;20288;-59
2024/02/19 03:23:02;;;;;;;4.70;2.05;;;15.80;64.40;;;;;;5115450;28;20169;-60
2024/02/19 03:25:28;;;;;;;4.20;1.27;;;15.70;64.30;;;;;;5114546;28;20181;-59
2024/02/19 03:27:53;;;;;;;2.65;1.20;;;15.80;64.40;;;;;;5115601;28;20192;-59
2024/02/19 03:30:19;;;;;;;3.33;1.42;;;15.70;64.40;;;;;;5115280;28;20192;-60
2024/02/19 03:32:45;;;;;;;2.75;1.17;;;15.70;64.30;;;;;;5114756;28;20177;-60
2024/02/19 03:35:10;;;;;;;2.80;1.42;;;15.70;64.30;;;;;;5115315;28;20195;-60
2024/02/19 03:37:36;;;;;;;3.00;1.30;;;15.70;64.30;;;;;;5114827;28;20279;-59
2024/02/19 03:40:06;;;;;;;4.70;1.35;;;15.70;65.20;;;;;;5114665;28;20220;-60
2024/02/19 03:42:31;;;;;;;2.40;1.08;;;15.70;64.40;;;;;;5114835;28;20181;-60
2024/02/19 03:44:57;;;;;;;4.07;1.65;;;15.70;64.40;;;;;;5115247;28;20230;-60
2024/02/19 03:47:22;;;;;;;4.82;1.60;;;15.70;64.30;;;;;;5114140;28;20589;-60
2024/02/19 03:49:48;;;;;;;2.78;1.40;;;15.70;64.30;;;;;;5114929;28;20184;-60
2024/02/19 03:52:13;;;;;;;4.50;1.63;;;15.70;64.40;;;;;;5114991;28;20199;-60
2024/02/19 03:54:39;;;;;;;3.78;1.80;;;15.70;64.40;;;;;;5114033;28;20191;-60
2024/02/19 03:57:05;;;;;;;4.00;1.65;;;15.70;64.40;;;;;;5114773;28;20311;-60
2024/02/19 03:59:31;;;;;;;3.65;1.77;;;15.70;64.40;;;;;;5114515;28;20201;-60
2024/02/19 04:01:57;;;;;;;4.85;1.20;;;15.70;64.40;;;;;;5114040;28;20189;-60
2024/02/19 04:04:22;;;;;;;5.22;1.60;;;15.70;64.40;;;;;;5114418;28;20179;-60
2024/02/19 04:06:49;;;;;;;3.00;1.30;;;15.70;65.20;;;;;;5114596;28;20179;-60
2024/02/19 04:09:14;;;;;;;3.65;1.30;;;15.70;64.40;;;;;;5114174;28;20226;-60
2024/02/19 04:11:40;;;;;;;5.88;1.95;;;15.70;64.40;;;;;;5114376;28;20161;-61
2024/02/19 04:14:05;;;;;;;2.97;1.10;;;15.70;64.50;;;;;;5113327;28;20172;-60
2024/02/19 04:16:31;;;;;;;4.00;1.30;;;15.70;64.40;;;;;;5112972;28;20294;-60
2024/02/19 04:18:57;;;;;;;2.65;1.48;;;15.70;64.40;;;;;;5114360;28;20185;-60
2024/02/19 04:21:22;;;;;;;3.85;1.60;;;15.60;64.30;;;;;;5113280;28;20539;-60
2024/02/19 04:23:48;;;;;;;4.15;1.48;;;15.60;64.30;;;;;;5114339;28;20169;-60
2024/02/19 04:26:13;;;;;;;3.50;1.67;;;15.60;64.40;;;;;;5114550;27;20185;-61
2024/02/19 04:28:39;;;;;;;2.75;1.38;;;15.70;64.40;;;;;;5113369;28;20183;-61
2024/02/19 04:31:04;;;;;;;3.28;1.48;;;15.60;65.20;;;;;;5114439;28;20185;-63
2024/02/19 04:33:30;;;;;;;3.47;1.90;;;15.60;64.40;;;;;;5113765;28;20261;-63
2024/02/19 04:35:56;;;;;;;3.55;1.52;;;15.60;64.30;;;;;;5113343;28;20185;-60
2024/02/19 04:38:21;;;;;;;3.08;1.30;;;15.60;64.30;;;;;;5114009;28;20173;-60
2024/02/19 04:40:47;;;;;;;3.22;1.48;;;15.60;64.40;;;;;;5113823;28;20219;-61
2024/02/19 04:43:13;;;;;;;3.15;1.33;;;15.60;64.40;;;;;;5113341;28;20173;-60
2024/02/19 04:45:38;;;;;;;4.60;1.65;;;15.60;64.40;;;;;;5113741;28;20663;-61
2024/02/19 04:48:04;;;;;;;6.43;2.10;;;15.60;64.40;;;;;;5113787;28;20256;-61
2024/02/19 04:50:30;;;;;;;3.17;1.40;;;15.60;64.30;;;;;;5112763;28;20180;-61
2024/02/19 04:52:55;;;;;;;3.08;1.60;;;15.60;64.40;;;;;;5113734;28;20218;-61
2024/02/19 04:55:21;;;;;;;3.63;1.50;;;15.60;64.40;;;;;;5113146;28;20225;-61
2024/02/19 04:57:46;;;;;;;3.28;1.27;;;15.60;64.40;;;;;;5113107;28;20271;-61
2024/02/19 05:00:12;;;;;;;4.10;1.55;;;15.60;64.40;;;;;;5113536;28;20220;-61
2024/02/19 05:02:38;;;;;;;2.38;1.30;;;15.60;64.40;;;;;;5113297;28;20545;-60
2024/02/19 05:05:04;;;;;;;4.05;1.60;;;15.60;64.40;;;;;;5112833;28;20633;-61
2024/02/19 05:07:30;;;;;;;3.47;1.52;;;15.60;64.40;;;;;;5113249;28;20628;-61
2024/02/19 05:09:55;;;;;;;3.17;1.40;;;15.60;64.40;;;;;;5113378;28;20177;-60
2024/02/19 05:12:21;;;;;;;2.97;1.67;;;15.60;64.40;;;;;;5112253;28;20169;-61
2024/02/19 05:14:46;;;;;;;3.28;1.42;;;15.60;64.40;;;;;;5113221;28;20252;-61
2024/02/19 05:17:12;;;;;;;3.70;1.63;;;15.50;64.30;;;;;;5113319;28;20314;-61
2024/02/19 05:19:37;;;;;;;3.83;1.20;;;15.50;64.40;;;;;;5111984;28;20322;-61
2024/02/19 05:22:03;;;;;;;3.85;1.50;;;15.50;64.40;;;;;;5113428;28;20222;-60
2024/02/19 05:24:28;;;;;;;5.10;2.20;;;15.60;64.40;;;;;;5112862;28;20222;-60
2024/02/19 05:26:54;;;;;;;3.67;1.33;;;15.60;64.40;;;;;;5112245;28;20179;-60
2024/02/19 05:29:19;;;;;;;3.50;1.40;;;15.50;64.40;;;;;;5112337;28;20210;-61
2024/02/19 05:31:45;;;;;;;4.78;1.70;;;15.60;64.40;;;;;;5112442;28;20176;-60
2024/02/19 05:34:11;;;;;;;4.10;1.50;;;15.60;64.50;;;;;;5112922;28;20173;-61
2024/02/19 05:36:36;;;;;;;3.42;1.40;;;15.50;64.40;;;;;;5112886;28;20208;-61
2024/02/19 05:39:02;;;;;;;2.85;1.38;;;15.60;64.50;;;;;;5112325;28;20203;-60
2024/02/19 05:41:27;;;;;;;4.03;1.48;;;15.50;64.40;;;;;;5112614;28;20583;-61
2024/02/19 05:43:53;;;;;;;3.45;1.80;;;15.50;64.40;;;;;;5112923;28;20169;-60
2024/02/19 05:46:19;;;;;;;3.97;1.35;;;15.60;64.50;;;;;;5111804;28;20173;-61
2024/02/19 05:48:45;;;;;;;2.88;1.30;;;15.50;64.40;;;;;;5112733;28;20249;-61
2024/02/19 05:51:13;;;;;;;5.07;1.55;;;15.50;64.30;;;;;;5112698;28;20200;-60
2024/02/19 05:53:40;;;;;;;2.35;1.42;;;15.50;64.40;;;;;;5111691;28;20179;-60
2024/02/19 05:56:06;;;;;;;4.53;1.40;;;15.50;64.40;;;;;;5112511;28;20244;-61
2024/02/19 05:58:31;;;;;;;5.25;2.10;;;15.50;64.40;;;;;;5112212;28;20165;-61
2024/02/19 06:00:57;;;;;;;3.17;1.38;;;15.50;64.40;;;;;;5111791;28;20204;-61
2024/02/19 06:03:25;;;;;;;4.53;1.83;;;15.50;64.40;;;;;;5112161;28;20177;-60
2024/02/19 06:05:51;;;;;;;4.75;1.63;;;15.50;64.40;;;;;;5112403;28;20592;-61
2024/02/19 06:08:16;;;;;;;4.53;1.45;;;15.50;64.50;;;;;;5111852;28;20175;-60
2024/02/19 06:10:45;;;;;;;2.22;1.17;;;15.50;64.50;;;;;;5112407;28;20177;-61
2024/02/19 06:13:14;;;;;;;3.42;1.42;;;15.50;64.50;;;;;;5112439;28;20548;-61
2024/02/19 06:15:42;;;;;;;4.18;1.63;;;15.50;64.40;;;;;;5111272;28;20176;-60
2024/02/19 06:18:07;;;;;;;3.42;1.30;;;15.50;64.40;;;;;;5112345;28;20204;-60
2024/02/19 06:20:33;;;;;;;2.63;1.55;;;15.50;64.40;;;;;;5111929;28;20546;-60
2024/02/19 06:22:59;;;;;;;2.47;1.30;;;15.50;64.40;;;;;;5111751;28;20264;-60
2024/02/19 06:25:25;;;;;;;3.33;1.23;;;15.50;64.40;;;;;;5112183;28;20219;-61
2024/02/19 06:27:50;;;;;;;4.03;1.63;;;15.50;64.30;;;;;;5111988;28;20644;-60
2024/02/19 06:30:18;;;;;;;3.97;1.65;;;15.50;65.10;;;;;;5112167;28;20204;-61
2024/02/19 06:32:43;;;;;;;3.45;1.35;;;15.60;64.30;;;;;;5112314;28;20196;-60
2024/02/19 06:35:09;;;;;;;4.43;1.50;;;15.60;64.30;;;;;;5111940;28;20195;-60
2024/02/19 06:37:35;;;;;;;4.78;1.63;;;15.60;64.20;;;;;;5111997;28;20169;-61
2024/02/19 06:40:00;;;;;;;4.03;1.45;;;15.60;64.20;;;;;;5115021;28;20247;-60
2024/02/19 06:42:26;;;;;;;3.42;1.58;;;15.50;64.10;;;;;;5115247;28;20173;-61
2024/02/19 06:44:51;;;;;;;3.17;1.63;;;15.50;64.10;;;;;;5116247;28;20252;-61
2024/02/19 06:47:17;;;;;;;3.53;1.40;;;15.50;64.20;;;;;;5115996;28;20529;-61
2024/02/19 06:49:43;;;;;;;4.63;1.55;;;15.50;64.20;;;;;;5115208;28;20535;-61
2024/02/19 06:52:08;;;;;;;2.35;1.08;;;15.50;64.20;;;;;;5116348;27;20181;-61
2024/02/19 06:54:34;;;;;;;2.70;1.20;;;15.60;64.30;;;;;;5115700;28;20165;-61
2024/02/19 06:56:59;;;;;;;3.88;1.85;;;15.70;64.50;;;;;;5115072;28;20232;-61
2024/02/19 06:59:25;;;;;;;2.22;0.98;;;15.70;64.40;;;;;;5115685;28;20173;-61
2024/02/19 07:01:51;;;;;;;3.03;1.45;;;15.80;64.40;;;;;;5115752;28;20216;-61
2024/02/19 07:04:18;;;;;;;2.92;1.20;;;15.90;64.30;;;;;;5115337;28;20171;-60
2024/02/19 07:06:43;;;;;;;3.15;1.27;;;16.00;64.00;;;;;;5115928;28;20218;-61
2024/02/19 07:09:09;;;;;;;3.88;1.45;;;16.20;63.80;;;;;;5115882;28;20638;-61
2024/02/19 07:11:34;;;;;;;2.75;1.38;;;16.30;63.60;;;;;;5114823;28;20728;-61
2024/02/19 07:14:00;;;;;;;2.97;1.30;;;16.50;63.20;;;;;;5115637;28;20177;-60
2024/02/19 07:16:25;;;;;;;3.13;1.50;;;16.60;63.10;;;;;;5115127;27;20173;-60
2024/02/19 07:18:51;;;;;;;3.58;1.10;;;16.70;62.70;;;;;;5115141;28;20180;-61
2024/02/19 07:21:17;;;;;;;3.78;1.40;;;16.90;62.30;;;;;;5115429;28;20220;-60
2024/02/19 07:23:46;;;;;;;5.03;1.42;;;17.00;62.00;;;;;;5115360;28;20165;-61
2024/02/19 07:26:12;;;;;;;2.90;1.50;;;17.00;61.80;;;;;;5114850;28;20181;-60
2024/02/19 07:28:37;;;;;;;3.35;1.40;;;17.10;61.70;;;;;;5115114;28;20201;-60
2024/02/19 07:31:03;;;;;;;2.50;1.70;;;17.10;61.40;;;;;;5115394;28;20655;-61
2024/02/19 07:33:28;;;;;;;5.15;1.85;;;17.10;61.40;;;;;;5114453;28;20263;-60
2024/02/19 07:35:54;;;;;;;2.63;1.20;;;17.20;61.40;;;;;;5115343;28;20173;-60
2024/02/19 07:38:20;;;;;;;2.75;1.25;;;17.20;61.20;;;;;;5114293;28;20214;-61
2024/02/19 07:40:46;;;;;;;3.15;1.40;;;17.30;61.00;;;;;;5115025;28;20217;-60
2024/02/19 07:43:12;;;;;;;3.13;1.25;;;17.40;61.00;;;;;;5115037;28;20177;-61
2024/02/19 07:45:38;;;;;;;3.92;1.70;;;17.30;60.90;;;;;;5114023;28;20185;-62
2024/02/19 07:48:06;;;;;;;2.67;1.20;;;17.40;60.80;;;;;;5115197;28;20173;-61
2024/02/19 07:50:32;;;;;;;2.58;1.20;;;17.40;60.80;;;;;;5114058;28;20177;-61
2024/02/19 07:52:58;;;;;;;3.25;1.20;;;17.40;60.80;;;;;;5114392;28;20170;-61
2024/02/19 07:55:25;;;;;;;3.75;1.33;;;17.50;60.80;;;;;;5114479;28;20173;-62
2024/02/19 07:57:50;;;;;;;2.78;1.08;;;17.40;60.90;;;;;;5114902;28;20238;-61
2024/02/19 08:00:17;;;;;;;3.42;1.30;;;17.40;60.90;;;;;;5114225;28;20625;-61
2024/02/19 08:02:42;;;;;;;2.60;1.23;;;17.40;61.00;;;;;;5114801;28;20257;-61
2024/02/19 08:05:08;;;;;;;2.67;1.20;;;17.40;60.80;;;;;;5114901;28;20264;-61
2024/02/19 08:07:33;;;;;;;2.47;1.23;;;17.50;60.70;;;;;;5113731;28;20256;-62
2024/02/19 08:09:59;;;;;;;2.15;1.40;;;17.40;60.80;;;;;;5114769;27;20253;-61
2024/02/19 08:12:24;;;;;;;2.88;1.20;;;17.40;60.80;;;;;;5114153;28;20220;-61
2024/02/19 08:14:50;;;;;;;2.75;1.38;;;17.40;60.70;;;;;;5113876;28;20256;-61
2024/02/19 08:17:17;;;;;;;2.60;1.20;;;17.50;60.80;;;;;;5114660;28;20214;-60
2024/02/19 08:19:42;;;;;;;3.17;1.23;;;17.50;60.70;;;;;;5114370;28;20225;-61
2024/02/19 08:22:08;;;;;;;2.85;1.27;;;17.50;60.80;;;;;;5113752;28;20212;-61
2024/02/19 08:24:35;;;;;;;2.35;1.52;;;17.50;60.80;;;;;;5114106;28;20198;-60
2024/02/19 08:27:01;;;;;;;2.03;1.13;;;17.50;60.60;;;;;;5113971;28;20177;-61
2024/02/19 08:29:26;;;;;;;3.00;1.33;;;17.60;60.60;;;;;;5113450;28;20165;-60
2024/02/19 08:31:52;;;;;;;3.22;1.35;;;17.60;60.70;;;;;;5114308;28;20260;-61
2024/02/19 08:34:18;;;;;;;2.08;1.05;;;17.60;60.60;;;;;;5114009;28;20172;-61
2024/02/19 08:36:43;;;;;;;3.78;1.45;;;17.50;60.60;;;;;;5116594;27;20553;-60
2024/02/19 08:39:09;;;;;;;3.22;1.60;;;17.60;60.70;;;;;;5129904;27;20176;-61
2024/02/19 08:41:34;;;;;;;1.80;1.17;;;17.50;60.70;;;;;;5133378;27;20276;-61
2024/02/19 08:44:00;;;;;;;2.08;1.10;;;17.50;60.70;;;;;;5134610;27;20521;-61
2024/02/19 08:46:25;;;;;;;3.28;1.08;;;17.60;60.80;;;;;;5134051;27;20576;-62
2024/02/19 08:48:53;;;;;;;1.27;1.15;;;17.60;60.70;;;;;;5133792;27;20682;-60
2024/02/19 08:51:20;;;;;;;3.70;1.35;;;17.50;60.80;;;;;;5134164;27;20177;-61
2024/02/19 08:53:45;;;;;;;5.60;1.23;;;17.50;60.90;;;;;;5134267;27;20643;-60
2024/02/19 08:56:11;;;;;;;4.40;1.30;;;17.50;61.10;;;;;;5133243;27;20249;-61
2024/02/19 08:58:37;;;;;;;2.38;1.20;;;17.40;61.20;;;;;;5133846;27;20675;-61
2024/02/19 09:01:04;;;;;;;2.63;1.33;;;17.40;61.40;;;;;;5134244;27;20211;-60
2024/02/19 09:03:29;;;;;;;3.67;1.73;;;17.30;61.50;;;;;;5131879;27;20639;-61
2024/02/19 09:05:55;;;;;;;3.53;1.80;;;17.30;61.60;;;;;;5134017;27;20184;-60
2024/02/19 09:08:20;;;;;;;3.13;1.35;;;17.30;61.60;;;;;;5133583;27;20273;-61
2024/02/19 09:10:46;;;;;;;4.47;1.27;;;17.40;61.70;;;;;;5133129;27;20229;-60
2024/02/19 09:13:11;;;;;;;3.25;1.48;;;17.30;61.70;;;;;;5134067;27;20279;-60
2024/02/19 09:15:37;;;;;;;3.05;1.23;;;17.20;61.70;;;;;;5133540;27;20591;-60
2024/02/19 09:18:03;;;;;;;2.65;1.33;;;17.20;61.80;;;;;;5133063;27;20271;-60
2024/02/19 09:20:31;;;;;;;2.97;1.40;;;17.20;62.70;;;;;;5133342;27;20240;-60
2024/02/19 09:22:57;;;;;;;2.03;1.23;;;17.10;62.00;;;;;;5133657;27;20185;-60
2024/02/19 09:25:25;;;;;;;2.38;1.20;;;17.10;62.10;;;;;;5132607;27;20280;-60
2024/02/19 09:27:50;;;;;;;4.18;1.50;;;17.10;62.20;;;;;;5133930;27;20176;-60
2024/02/19 09:30:16;;;;;;;2.45;1.38;;;17.10;62.30;;;;;;5133583;27;20173;-60
2024/02/19 09:32:42;;;;;;;3.08;1.45;;;17.00;62.20;;;;;;5132916;27;20197;-61
2024/02/19 09:35:08;;;;;;;1.17;0.85;;;17.00;62.30;;;;;;5133482;27;20176;-60
2024/02/19 09:37:33;;;;;;;2.80;1.38;;;17.10;62.30;;;;;;5133178;27;20179;-60
2024/02/19 09:39:59;;;;;;;3.08;1.45;;;17.10;62.30;;;;;;5132681;27;20302;-61
2024/02/19 09:42:32;;;;;;;3.58;1.40;;;17.00;62.40;;;;;;5133024;27;20266;-60
2024/02/19 09:44:57;;;;;;;3.08;1.40;;;17.00;62.50;;;;;;5131508;27;20176;-60
2024/02/19 09:47:23;;;;;;;5.65;1.60;;;17.00;62.50;;;;;;5133019;27;20176;-60
2024/02/19 09:49:48;;;;;;;4.35;1.60;;;16.90;62.50;;;;;;5115003;27;20175;-60
2024/02/19 09:52:24;;;;;;;3.67;1.42;;;16.90;62.50;;;;;;5132693;27;20634;-60
2024/02/19 09:54:50;;;;;;;2.70;1.40;;;16.90;62.70;;;;;;5132121;27;20225;-60
2024/02/19 09:57:16;;;;;;;3.80;1.50;;;16.90;62.70;;;;;;5133157;27;20228;-61
2024/02/19 09:59:44;;;;;;;3.80;1.30;;;16.90;62.80;;;;;;5130867;27;20221;-60
2024/02/19 10:02:11;;;;;;;3.40;1.40;;;16.90;62.70;;;;;;5133249;27;20172;-60
2024/02/19 10:04:37;;;;;;;2.17;1.10;;;16.90;62.60;;;;;;5132836;27;20495;-61
2024/02/19 10:07:03;;;;;;;2.80;1.20;;;16.90;62.60;;;;;;5132327;27;20312;-60
2024/02/19 10:09:29;;;;;;;2.67;1.25;;;16.90;62.60;;;;;;5132705;27;20264;-61
2024/02/19 10:11:57;;;;;;;2.03;1.05;;;16.90;62.60;;;;;;5133173;27;20176;-61
2024/02/19 10:14:23;;;;;;;2.00;1.33;;;16.90;62.60;;;;;;5131638;27;20178;-60
2024/02/19 10:16:52;;;;;;;3.08;1.55;;;16.90;62.60;;;;;;5132998;27;20259;-60
2024/02/19 10:19:18;;;;;;;2.20;1.40;;;16.90;62.60;;;;;;5132595;27;20222;-60
2024/02/19 10:21:48;;;;;;;2.25;1.20;;;16.90;62.70;;;;;;5131989;28;20203;-60
2024/02/19 10:24:14;;;;;;;2.65;1.35;;;16.80;62.70;;;;;;5133352;27;20160;-60
2024/02/19 10:26:40;;;;;;;3.13;1.27;;;16.80;62.90;;;;;;5132780;27;20190;-60
2024/02/19 10:29:08;;;;;;;3.75;1.50;;;16.80;62.80;;;;;;5132233;27;20180;-61
2024/02/19 10:31:34;;;;;;;4.40;1.63;;;16.80;62.90;;;;;;5132340;28;20175;-60
2024/02/19 10:34:02;;;;;;;2.05;1.25;;;16.80;62.90;;;;;;5132588;28;20172;-61
2024/02/19 10:36:27;;;;;;;4.18;1.50;;;16.70;63.10;;;;;;5132357;28;20204;-60
2024/02/19 10:38:53;;;;;;;3.97;1.48;;;16.80;63.10;;;;;;5131636;27;20222;-60
2024/02/19 10:41:20;;;;;;;1.85;1.30;;;16.70;63.10;;;;;;5131942;27;20212;-61
2024/02/19 10:43:46;;;;;;;3.35;1.45;;;16.70;63.30;;;;;;5131627;28;20188;-60
2024/02/19 10:46:15;;;;;;;3.00;1.75;;;16.70;63.20;;;;;;5132771;28;20176;-61
2024/02/19 10:48:41;;;;;;;2.45;1.58;;;16.70;63.30;;;;;;5130385;28;20221;-60
2024/02/19 10:51:06;;;;;;;3.75;1.58;;;16.70;63.20;;;;;;5131720;28;20184;-60
2024/02/19 10:53:32;;;;;;;3.67;1.73;;;16.60;63.10;;;;;;5132549;28;20804;-61
2024/02/19 10:56:17;;;;;;;3.35;1.38;;;16.70;63.20;;;;;;5131638;28;20721;-60
2024/02/19 10:58:53;;;;;;;2.95;1.60;;;16.60;63.20;;;;;;5132486;27;20537;-61
2024/02/19 11:01:19;;;;;;;3.95;1.63;;;16.60;63.20;;;;;;5132235;27;20207;-60
2024/02/19 11:03:44;;;;;;;2.80;1.40;;;16.60;63.20;;;;;;5132091;27;20183;-61
2024/02/19 11:06:11;;;;;;;3.78;1.88;;;16.60;63.20;;;;;;5132740;28;20168;-61
2024/02/19 11:08:40;;;;;;;2.33;1.30;;;16.60;63.20;;;;;;5132471;27;20537;-61
2024/02/19 11:11:05;;;;;;;3.40;1.88;;;16.60;64.00;;;;;;5131960;27;20253;-60
2024/02/19 11:13:35;;;;;;;3.45;1.70;;;16.60;63.20;;;;;;5132252;27;20173;-60
2024/02/19 11:16:02;;;;;;;2.88;1.60;;;16.60;63.30;;;;;;5131302;27;20181;-60
2024/02/19 11:18:31;;;;;;;2.50;1.40;;;16.60;63.20;;;;;;5131511;27;20183;-60
2024/02/19 11:21:02;;;;;;;3.28;1.35;;;16.50;63.20;;;;;;5132104;27;20216;-60
2024/02/19 11:23:30;;;;;;;5.13;2.05;;;16.50;63.20;;;;;;5131536;27;20172;-60
2024/02/19 11:25:56;;;;;;;4.75;2.03;;;16.50;63.40;;;;;;5132907;27;20631;-60
2024/02/19 11:28:21;;;;;;;2.97;2.10;;;16.50;63.30;;;;;;5134400;27;20187;-60
2024/02/19 11:30:49;;;;;;;3.78;1.67;;;16.50;63.30;;;;;;5134269;27;20184;-60
2024/02/19 11:33:15;;;;;;;5.65;1.70;;;16.50;63.30;;;;;;5134313;27;20177;-60
2024/02/19 11:35:42;;;;;;;4.35;1.77;;;16.50;63.30;;;;;;5135550;27;20169;-60
2024/02/19 11:38:10;;;;;;;3.08;1.58;;;16.50;63.30;;;;;;5135010;27;20548;-61
2024/02/19 11:40:36;;;;;;;3.33;1.75;;;16.50;63.40;;;;;;5135348;27;20800;-60
2024/02/19 11:43:02;;;;;;;2.97;1.77;;;16.40;63.30;;;;;;5135242;27;20180;-60
2024/02/19 11:45:29;;;;;;;2.70;1.70;;;16.40;63.30;;;;;;5134919;27;20215;-60
2024/02/19 11:47:54;;;;;;;2.42;1.70;;;16.40;63.30;;;;;;5134594;27;20600;-61
2024/02/19 11:50:23;;;;;;;3.15;1.40;;;16.40;63.30;;;;;;5133730;27;20247;-60
2024/02/19 11:52:50;;;;;;;2.97;1.70;;;16.40;63.40;;;;;;5134759;27;20226;-60
2024/02/19 11:55:20;;;;;;;4.75;1.65;;;16.40;63.40;;;;;;5134118;27;20165;-60
2024/02/19 11:57:47;;;;;;;2.75;1.23;;;16.40;63.40;;;;;;5135373;27;20215;-60
2024/02/19 12:00:14;;;;;;;3.47;1.95;;;16.40;63.40;;;;;;5134863;27;20203;-61
2024/02/19 12:02:47;;;;;;;3.95;1.63;;;16.40;63.40;;;;;;5135062;27;20192;-60
2024/02/19 12:05:12;;;;;;;4.40;1.75;;;16.40;63.50;;;;;;5134947;27;20172;-60
2024/02/19 12:07:38;;;;;;;3.55;1.52;;;16.40;63.60;;;;;;5133872;27;20178;-59
2024/02/19 12:10:08;;;;;;;3.70;2.10;;;16.40;63.50;;;;;;5135244;27;20176;-59
2024/02/19 12:12:33;;;;;;;3.40;1.33;;;16.40;63.40;;;;;;5132757;27;20176;-60
2024/02/19 12:15:03;;;;;;;3.08;1.52;;;16.40;63.50;;;;;;5135052;27;20179;-60
2024/02/19 12:17:28;;;;;;;2.58;1.60;;;16.50;63.50;;;;;;5134670;27;20221;-60
2024/02/19 12:19:54;;;;;;;4.75;1.60;;;16.40;63.50;;;;;;5134295;27;20161;-60
2024/02/19 12:22:22;;;;;;;3.33;1.50;;;16.40;63.60;;;;;;5134652;27;20168;-60
2024/02/19 12:24:50;;;;;;;3.10;1.55;;;16.40;63.60;;;;;;5134894;27;20183;-61
2024/02/19 12:27:16;;;;;;;4.53;1.92;;;16.40;63.70;;;;;;5134307;27;20172;-60
2024/02/19 12:29:42;;;;;;;5.35;1.80;;;16.40;63.70;;;;;;5134733;27;20168;-60
2024/02/19 12:32:07;;;;;;;4.25;1.95;;;16.40;63.70;;;;;;5134700;27;20185;-60
2024/02/19 12:34:33;;;;;;;4.03;1.90;;;16.40;63.80;;;;;;5132487;27;20271;-66
2024/02/19 12:36:59;;;;;;;4.53;1.60;;;16.40;63.80;;;;;;5134356;27;20172;-65
2024/02/19 12:39:25;;;;;;;2.70;2.17;;;16.40;64.00;;;;;;5134223;27;20658;-65
2024/02/19 12:41:51;;;;;;;5.20;1.92;;;16.40;63.80;;;;;;5133633;27;20204;-65